sensor_id;sensor_type;location;lat;lon;timestamp;P1;durP1;ratioP1;P2;durP2;ratioP2
32469;SDS011;18925;48.356;10.864;2023-02-10T00:00:27;119.13;;;57.67;;
32469;SDS011;18925;48.356;10.864;2023-02-10T00:01:35;123.53;;;57.03;;
32469;SDS011;18925;48.356;10.864;2023-02-10T00:02:06;131.75;;;58.63;;
32469;SDS011;18925;48.356;10.864;2023-02-10T00:02:36;127.47;;;59.95;;
32469;SDS011;18925;48.356;10.864;2023-02-10T00:03:07;122.18;;;58.15;;
32469;SDS011;18925;48.356;10.864;2023-02-10T00:03:38;124.65;;;58.35;;
32469;SDS011;18925;48.356;10.864;2023-02-10T00:04:10;131.38;;;61.50;;
32469;SDS011;18925;48.356;10.864;2023-02-10T00:04:44;111.85;;;55.78;;
32469;SDS011;18925;48.356;10.864;2023-02-10T00:05:14;113.28;;;55.80;;
32469;SDS011;18925;48.356;10.864;2023-02-10T00:05:45;119.38;;;57.90;;
32469;SDS011;18925;48.356;10.864;2023-02-10T00:06:16;120.38;;;57.78;;
32469;SDS011;18925;48.356;10.864;2023-02-10T00:06:48;129.00;;;57.70;;
32469;SDS011;18925;48.356;10.864;2023-02-10T00:07:18;134.27;;;60.22;;
32469;SDS011;18925;48.356;10.864;2023-02-10T00:07:49;123.50;;;59.72;;
32469;SDS011;18925;48.356;10.864;2023-02-10T00:08:20;124.05;;;60.97;;
32469;SDS011;18925;48.356;10.864;2023-02-10T00:08:51;123.68;;;59.22;;
32469;SDS011;18925;48.356;10.864;2023-02-10T00:09:24;121.88;;;59.25;;
32469;SDS011;18925;48.356;10.864;2023-02-10T00:09:55;135.82;;;61.15;;
32469;SDS011;18925;48.356;10.864;2023-02-10T00:10:25;131.95;;;61.88;;
32469;SDS011;18925;48.356;10.864;2023-02-10T00:10:59;140.43;;;63.03;;
32469;SDS011;18925;48.356;10.864;2023-02-10T00:11:32;126.03;;;60.92;;
32469;SDS011;18925;48.356;10.864;2023-02-10T00:12:21;132.63;;;63.08;;
32469;SDS011;18925;48.356;10.864;2023-02-10T00:12:51;144.70;;;63.70;;
32469;SDS011;18925;48.356;10.864;2023-02-10T00:13:22;138.07;;;62.58;;
32469;SDS011;18925;48.356;10.864;2023-02-10T00:13:53;139.85;;;64.07;;
32469;SDS011;18925;48.356;10.864;2023-02-10T00:14:23;154.75;;;64.55;;
32469;SDS011;18925;48.356;10.864;2023-02-10T00:14:54;143.45;;;64.57;;
32469;SDS011;18925;48.356;10.864;2023-02-10T00:15:25;122.97;;;60.90;;
32469;SDS011;18925;48.356;10.864;2023-02-10T00:16:02;132.90;;;60.65;;
32469;SDS011;18925;48.356;10.864;2023-02-10T00:16:34;133.98;;;61.63;;
32469;SDS011;18925;48.356;10.864;2023-02-10T00:17:04;128.32;;;59.75;;
32469;SDS011;18925;48.356;10.864;2023-02-10T00:17:35;128.48;;;58.67;;
32469;SDS011;18925;48.356;10.864;2023-02-10T00:18:06;137.18;;;62.03;;
32469;SDS011;18925;48.356;10.864;2023-02-10T00:18:36;123.78;;;59.03;;
32469;SDS011;18925;48.356;10.864;2023-02-10T00:19:07;124.55;;;60.03;;
32469;SDS011;18925;48.356;10.864;2023-02-10T00:19:38;119.15;;;57.15;;
32469;SDS011;18925;48.356;10.864;2023-02-10T00:20:08;115.50;;;56.97;;
32469;SDS011;18925;48.356;10.864;2023-02-10T00:20:40;128.07;;;60.75;;
32469;SDS011;18925;48.356;10.864;2023-02-10T00:21:14;124.60;;;59.42;;
32469;SDS011;18925;48.356;10.864;2023-02-10T00:21:46;121.28;;;58.22;;
32469;SDS011;18925;48.356;10.864;2023-02-10T00:22:17;120.28;;;58.75;;
32469;SDS011;18925;48.356;10.864;2023-02-10T00:22:47;138.93;;;60.38;;
32469;SDS011;18925;48.356;10.864;2023-02-10T00:23:18;122.10;;;59.47;;
32469;SDS011;18925;48.356;10.864;2023-02-10T00:23:49;116.85;;;57.17;;
32469;SDS011;18925;48.356;10.864;2023-02-10T00:24:20;136.10;;;59.78;;
32469;SDS011;18925;48.356;10.864;2023-02-10T00:24:51;123.95;;;58.10;;
32469;SDS011;18925;48.356;10.864;2023-02-10T00:25:22;120.78;;;59.70;;
32469;SDS011;18925;48.356;10.864;2023-02-10T00:25:52;122.28;;;60.10;;
32469;SDS011;18925;48.356;10.864;2023-02-10T00:26:23;128.90;;;57.78;;
32469;SDS011;18925;48.356;10.864;2023-02-10T00:26:55;120.43;;;58.08;;
32469;SDS011;18925;48.356;10.864;2023-02-10T00:27:25;132.55;;;60.28;;
32469;SDS011;18925;48.356;10.864;2023-02-10T00:27:56;121.68;;;57.63;;
32469;SDS011;18925;48.356;10.864;2023-02-10T00:28:27;129.13;;;58.10;;
32469;SDS011;18925;48.356;10.864;2023-02-10T00:28:57;133.15;;;59.10;;
32469;SDS011;18925;48.356;10.864;2023-02-10T00:29:28;123.30;;;57.13;;
32469;SDS011;18925;48.356;10.864;2023-02-10T00:30:01;117.18;;;56.45;;
32469;SDS011;18925;48.356;10.864;2023-02-10T00:30:32;122.22;;;56.78;;
32469;SDS011;18925;48.356;10.864;2023-02-10T00:31:09;116.22;;;57.05;;
32469;SDS011;18925;48.356;10.864;2023-02-10T00:31:44;120.57;;;58.78;;
32469;SDS011;18925;48.356;10.864;2023-02-10T00:32:15;113.55;;;56.97;;
32469;SDS011;18925;48.356;10.864;2023-02-10T00:32:47;127.07;;;59.58;;
32469;SDS011;18925;48.356;10.864;2023-02-10T00:33:17;124.95;;;57.55;;
32469;SDS011;18925;48.356;10.864;2023-02-10T00:33:48;123.15;;;57.72;;
32469;SDS011;18925;48.356;10.864;2023-02-10T00:34:19;117.57;;;57.80;;
32469;SDS011;18925;48.356;10.864;2023-02-10T00:34:49;114.82;;;56.30;;
32469;SDS011;18925;48.356;10.864;2023-02-10T00:35:20;117.95;;;56.47;;
32469;SDS011;18925;48.356;10.864;2023-02-10T00:35:51;131.43;;;60.35;;
32469;SDS011;18925;48.356;10.864;2023-02-10T00:36:21;123.63;;;58.55;;
32469;SDS011;18925;48.356;10.864;2023-02-10T00:36:54;118.53;;;56.30;;
32469;SDS011;18925;48.356;10.864;2023-02-10T00:37:25;128.75;;;57.90;;
32469;SDS011;18925;48.356;10.864;2023-02-10T00:37:55;111.22;;;54.88;;
32469;SDS011;18925;48.356;10.864;2023-02-10T00:38:26;112.30;;;54.78;;
32469;SDS011;18925;48.356;10.864;2023-02-10T00:38:57;113.60;;;55.35;;
32469;SDS011;18925;48.356;10.864;2023-02-10T00:39:27;117.95;;;56.20;;
32469;SDS011;18925;48.356;10.864;2023-02-10T00:39:58;114.03;;;56.88;;
32469;SDS011;18925;48.356;10.864;2023-02-10T00:40:29;126.03;;;58.72;;
32469;SDS011;18925;48.356;10.864;2023-02-10T00:41:05;122.18;;;56.75;;
32469;SDS011;18925;48.356;10.864;2023-02-10T00:42:10;113.97;;;53.55;;
32469;SDS011;18925;48.356;10.864;2023-02-10T00:42:41;108.18;;;52.85;;
32469;SDS011;18925;48.356;10.864;2023-02-10T00:43:12;120.22;;;56.13;;
32469;SDS011;18925;48.356;10.864;2023-02-10T00:43:43;113.32;;;53.70;;
32469;SDS011;18925;48.356;10.864;2023-02-10T00:44:14;116.80;;;55.53;;
32469;SDS011;18925;48.356;10.864;2023-02-10T00:44:45;133.35;;;56.90;;
32469;SDS011;18925;48.356;10.864;2023-02-10T00:45:16;125.80;;;56.47;;
32469;SDS011;18925;48.356;10.864;2023-02-10T00:45:46;120.57;;;57.63;;
32469;SDS011;18925;48.356;10.864;2023-02-10T00:46:18;124.88;;;57.42;;
32469;SDS011;18925;48.356;10.864;2023-02-10T00:46:50;117.07;;;56.83;;
32469;SDS011;18925;48.356;10.864;2023-02-10T00:47:20;132.13;;;58.85;;
32469;SDS011;18925;48.356;10.864;2023-02-10T00:47:53;121.03;;;57.53;;
32469;SDS011;18925;48.356;10.864;2023-02-10T00:48:24;118.07;;;54.97;;
32469;SDS011;18925;48.356;10.864;2023-02-10T00:48:55;118.03;;;55.10;;
32469;SDS011;18925;48.356;10.864;2023-02-10T00:49:25;118.47;;;56.03;;
32469;SDS011;18925;48.356;10.864;2023-02-10T00:49:56;112.82;;;56.00;;
32469;SDS011;18925;48.356;10.864;2023-02-10T00:50:27;114.78;;;56.78;;
32469;SDS011;18925;48.356;10.864;2023-02-10T00:50:57;107.82;;;55.78;;
32469;SDS011;18925;48.356;10.864;2023-02-10T00:51:28;120.65;;;58.10;;
32469;SDS011;18925;48.356;10.864;2023-02-10T00:51:59;115.13;;;58.38;;
32469;SDS011;18925;48.356;10.864;2023-02-10T00:52:30;122.97;;;55.78;;
32469;SDS011;18925;48.356;10.864;2023-02-10T00:53:00;113.97;;;58.53;;
32469;SDS011;18925;48.356;10.864;2023-02-10T00:53:31;132.27;;;60.47;;
32469;SDS011;18925;48.356;10.864;2023-02-10T00:54:02;134.45;;;61.63;;
32469;SDS011;18925;48.356;10.864;2023-02-10T00:54:33;140.15;;;61.20;;
32469;SDS011;18925;48.356;10.864;2023-02-10T00:55:04;120.47;;;58.38;;
32469;SDS011;18925;48.356;10.864;2023-02-10T00:55:35;115.43;;;55.88;;
32469;SDS011;18925;48.356;10.864;2023-02-10T00:56:05;118.30;;;54.55;;
32469;SDS011;18925;48.356;10.864;2023-02-10T00:56:38;116.40;;;57.13;;
32469;SDS011;18925;48.356;10.864;2023-02-10T00:57:09;115.38;;;57.58;;
32469;SDS011;18925;48.356;10.864;2023-02-10T00:57:40;126.82;;;58.03;;
32469;SDS011;18925;48.356;10.864;2023-02-10T00:58:11;124.75;;;56.35;;
32469;SDS011;18925;48.356;10.864;2023-02-10T00:58:41;126.07;;;55.83;;
32469;SDS011;18925;48.356;10.864;2023-02-10T00:59:12;111.78;;;55.92;;
32469;SDS011;18925;48.356;10.864;2023-02-10T00:59:43;114.57;;;56.53;;
32469;SDS011;18925;48.356;10.864;2023-02-10T01:00:14;121.93;;;57.05;;
32469;SDS011;18925;48.356;10.864;2023-02-10T01:00:44;128.35;;;56.03;;
32469;SDS011;18925;48.356;10.864;2023-02-10T01:01:15;121.85;;;55.92;;
32469;SDS011;18925;48.356;10.864;2023-02-10T01:01:46;103.78;;;54.55;;
32469;SDS011;18925;48.356;10.864;2023-02-10T01:02:16;120.10;;;55.97;;
32469;SDS011;18925;48.356;10.864;2023-02-10T01:02:47;108.72;;;54.38;;
32469;SDS011;18925;48.356;10.864;2023-02-10T01:03:18;114.03;;;54.10;;
32469;SDS011;18925;48.356;10.864;2023-02-10T01:03:48;113.45;;;54.38;;
32469;SDS011;18925;48.356;10.864;2023-02-10T01:04:19;105.18;;;53.75;;
32469;SDS011;18925;48.356;10.864;2023-02-10T01:04:49;121.57;;;58.25;;
32469;SDS011;18925;48.356;10.864;2023-02-10T01:05:20;104.28;;;53.90;;
32469;SDS011;18925;48.356;10.864;2023-02-10T01:05:51;115.93;;;54.17;;
32469;SDS011;18925;48.356;10.864;2023-02-10T01:06:21;121.70;;;56.03;;
32469;SDS011;18925;48.356;10.864;2023-02-10T01:06:52;115.50;;;57.03;;
32469;SDS011;18925;48.356;10.864;2023-02-10T01:07:23;115.63;;;53.78;;
32469;SDS011;18925;48.356;10.864;2023-02-10T01:07:53;113.25;;;53.22;;
32469;SDS011;18925;48.356;10.864;2023-02-10T01:08:24;117.18;;;56.05;;
32469;SDS011;18925;48.356;10.864;2023-02-10T01:08:55;123.53;;;54.63;;
32469;SDS011;18925;48.356;10.864;2023-02-10T01:09:25;120.05;;;54.80;;
32469;SDS011;18925;48.356;10.864;2023-02-10T01:09:56;118.18;;;54.47;;
32469;SDS011;18925;48.356;10.864;2023-02-10T01:10:27;105.32;;;54.13;;
32469;SDS011;18925;48.356;10.864;2023-02-10T01:11:01;114.57;;;53.85;;
32469;SDS011;18925;48.356;10.864;2023-02-10T01:11:34;108.22;;;53.00;;
32469;SDS011;18925;48.356;10.864;2023-02-10T01:12:05;117.13;;;53.38;;
32469;SDS011;18925;48.356;10.864;2023-02-10T01:12:36;119.15;;;54.80;;
32469;SDS011;18925;48.356;10.864;2023-02-10T01:13:07;112.20;;;54.85;;
32469;SDS011;18925;48.356;10.864;2023-02-10T01:13:39;108.53;;;53.60;;
32469;SDS011;18925;48.356;10.864;2023-02-10T01:14:11;116.65;;;53.22;;
32469;SDS011;18925;48.356;10.864;2023-02-10T01:14:42;113.03;;;53.60;;
32469;SDS011;18925;48.356;10.864;2023-02-10T01:15:13;116.28;;;53.55;;
32469;SDS011;18925;48.356;10.864;2023-02-10T01:15:45;111.82;;;52.33;;
32469;SDS011;18925;48.356;10.864;2023-02-10T01:16:16;108.95;;;53.08;;
32469;SDS011;18925;48.356;10.864;2023-02-10T01:16:47;101.65;;;53.10;;
32469;SDS011;18925;48.356;10.864;2023-02-10T01:17:18;116.95;;;55.22;;
32469;SDS011;18925;48.356;10.864;2023-02-10T01:17:48;110.57;;;54.88;;
32469;SDS011;18925;48.356;10.864;2023-02-10T01:18:19;121.15;;;56.80;;
32469;SDS011;18925;48.356;10.864;2023-02-10T01:18:50;115.93;;;55.85;;
32469;SDS011;18925;48.356;10.864;2023-02-10T01:19:20;119.45;;;54.53;;
32469;SDS011;18925;48.356;10.864;2023-02-10T01:19:51;111.20;;;54.92;;
32469;SDS011;18925;48.356;10.864;2023-02-10T01:20:22;122.28;;;53.42;;
32469;SDS011;18925;48.356;10.864;2023-02-10T01:20:53;121.65;;;56.08;;
32469;SDS011;18925;48.356;10.864;2023-02-10T01:21:24;114.75;;;55.85;;
32469;SDS011;18925;48.356;10.864;2023-02-10T01:21:55;110.18;;;54.78;;
32469;SDS011;18925;48.356;10.864;2023-02-10T01:22:25;110.85;;;55.95;;
32469;SDS011;18925;48.356;10.864;2023-02-10T01:22:56;113.53;;;55.20;;
32469;SDS011;18925;48.356;10.864;2023-02-10T01:23:26;124.47;;;55.22;;
32469;SDS011;18925;48.356;10.864;2023-02-10T01:23:57;111.30;;;54.85;;
32469;SDS011;18925;48.356;10.864;2023-02-10T01:24:28;111.68;;;53.28;;
32469;SDS011;18925;48.356;10.864;2023-02-10T01:24:58;117.22;;;55.20;;
32469;SDS011;18925;48.356;10.864;2023-02-10T01:25:29;120.53;;;54.08;;
32469;SDS011;18925;48.356;10.864;2023-02-10T01:26:02;127.72;;;56.97;;
32469;SDS011;18925;48.356;10.864;2023-02-10T01:26:33;126.57;;;55.83;;
32469;SDS011;18925;48.356;10.864;2023-02-10T01:27:04;117.75;;;54.53;;
32469;SDS011;18925;48.356;10.864;2023-02-10T01:27:34;113.15;;;53.72;;
32469;SDS011;18925;48.356;10.864;2023-02-10T01:28:05;113.07;;;54.50;;
32469;SDS011;18925;48.356;10.864;2023-02-10T01:28:37;112.43;;;54.55;;
32469;SDS011;18925;48.356;10.864;2023-02-10T01:29:09;117.68;;;54.60;;
32469;SDS011;18925;48.356;10.864;2023-02-10T01:29:39;111.43;;;53.65;;
32469;SDS011;18925;48.356;10.864;2023-02-10T01:30:12;110.10;;;54.55;;
32469;SDS011;18925;48.356;10.864;2023-02-10T01:30:43;114.53;;;53.55;;
32469;SDS011;18925;48.356;10.864;2023-02-10T01:31:14;113.35;;;55.05;;
32469;SDS011;18925;48.356;10.864;2023-02-10T01:31:47;127.53;;;55.13;;
32469;SDS011;18925;48.356;10.864;2023-02-10T01:32:17;114.00;;;56.88;;
32469;SDS011;18925;48.356;10.864;2023-02-10T01:32:51;112.32;;;54.35;;
32469;SDS011;18925;48.356;10.864;2023-02-10T01:33:23;114.35;;;55.15;;
32469;SDS011;18925;48.356;10.864;2023-02-10T01:33:54;118.60;;;54.63;;
32469;SDS011;18925;48.356;10.864;2023-02-10T01:34:25;114.65;;;54.00;;
32469;SDS011;18925;48.356;10.864;2023-02-10T01:34:56;123.35;;;54.45;;
32469;SDS011;18925;48.356;10.864;2023-02-10T01:35:27;112.30;;;55.53;;
32469;SDS011;18925;48.356;10.864;2023-02-10T01:35:57;116.13;;;54.72;;
32469;SDS011;18925;48.356;10.864;2023-02-10T01:36:31;116.13;;;53.42;;
32469;SDS011;18925;48.356;10.864;2023-02-10T01:37:02;111.25;;;54.13;;
32469;SDS011;18925;48.356;10.864;2023-02-10T01:37:33;106.10;;;52.95;;
32469;SDS011;18925;48.356;10.864;2023-02-10T01:38:04;117.25;;;53.10;;
32469;SDS011;18925;48.356;10.864;2023-02-10T01:38:34;102.97;;;51.38;;
32469;SDS011;18925;48.356;10.864;2023-02-10T01:39:05;112.97;;;54.88;;
32469;SDS011;18925;48.356;10.864;2023-02-10T01:39:36;106.25;;;52.03;;
32469;SDS011;18925;48.356;10.864;2023-02-10T01:40:06;120.03;;;54.25;;
32469;SDS011;18925;48.356;10.864;2023-02-10T01:40:38;114.70;;;52.95;;
32469;SDS011;18925;48.356;10.864;2023-02-10T01:41:08;109.10;;;54.25;;
32469;SDS011;18925;48.356;10.864;2023-02-10T01:41:39;132.20;;;56.38;;
32469;SDS011;18925;48.356;10.864;2023-02-10T01:42:12;124.00;;;55.83;;
32469;SDS011;18925;48.356;10.864;2023-02-10T01:42:44;111.32;;;54.75;;
32469;SDS011;18925;48.356;10.864;2023-02-10T01:43:16;120.40;;;56.85;;
32469;SDS011;18925;48.356;10.864;2023-02-10T01:44:55;112.68;;;53.30;;
32469;SDS011;18925;48.356;10.864;2023-02-10T01:45:13;101.85;;;49.92;;
32469;SDS011;18925;48.356;10.864;2023-02-10T01:45:56;109.55;;;48.85;;
32469;SDS011;18925;48.356;10.864;2023-02-10T01:46:36;108.65;;;48.72;;
32469;SDS011;18925;48.356;10.864;2023-02-10T01:47:06;106.65;;;50.63;;
32469;SDS011;18925;48.356;10.864;2023-02-10T01:47:38;103.40;;;50.33;;
32469;SDS011;18925;48.356;10.864;2023-02-10T01:48:09;115.78;;;53.05;;
32469;SDS011;18925;48.356;10.864;2023-02-10T01:48:40;105.07;;;50.75;;
32469;SDS011;18925;48.356;10.864;2023-02-10T01:49:12;110.13;;;53.22;;
32469;SDS011;18925;48.356;10.864;2023-02-10T01:49:47;110.90;;;53.22;;
32469;SDS011;18925;48.356;10.864;2023-02-10T01:50:20;106.15;;;51.08;;
32469;SDS011;18925;48.356;10.864;2023-02-10T01:50:56;113.78;;;53.33;;
32469;SDS011;18925;48.356;10.864;2023-02-10T01:51:50;110.97;;;51.50;;
32469;SDS011;18925;48.356;10.864;2023-02-10T01:52:26;106.82;;;51.53;;
32469;SDS011;18925;48.356;10.864;2023-02-10T01:52:59;109.38;;;50.58;;
32469;SDS011;18925;48.356;10.864;2023-02-10T01:53:30;107.68;;;51.65;;
32469;SDS011;18925;48.356;10.864;2023-02-10T01:54:02;111.28;;;53.13;;
32469;SDS011;18925;48.356;10.864;2023-02-10T01:54:44;114.32;;;52.55;;
32469;SDS011;18925;48.356;10.864;2023-02-10T01:55:29;116.63;;;54.10;;
32469;SDS011;18925;48.356;10.864;2023-02-10T01:56:04;114.82;;;52.00;;
32469;SDS011;18925;48.356;10.864;2023-02-10T01:56:35;113.30;;;52.72;;
32469;SDS011;18925;48.356;10.864;2023-02-10T01:57:06;103.78;;;51.80;;
32469;SDS011;18925;48.356;10.864;2023-02-10T01:57:37;108.63;;;53.53;;
32469;SDS011;18925;48.356;10.864;2023-02-10T01:58:13;124.30;;;55.38;;
32469;SDS011;18925;48.356;10.864;2023-02-10T01:58:48;116.63;;;53.45;;
32469;SDS011;18925;48.356;10.864;2023-02-10T01:59:19;119.07;;;55.50;;
32469;SDS011;18925;48.356;10.864;2023-02-10T01:59:50;102.70;;;51.22;;
32469;SDS011;18925;48.356;10.864;2023-02-10T02:00:22;129.82;;;52.95;;
32469;SDS011;18925;48.356;10.864;2023-02-10T02:00:55;119.40;;;53.97;;
32469;SDS011;18925;48.356;10.864;2023-02-10T02:01:25;126.07;;;57.40;;
32469;SDS011;18925;48.356;10.864;2023-02-10T02:01:56;113.28;;;56.08;;
32469;SDS011;18925;48.356;10.864;2023-02-10T02:02:29;122.45;;;55.60;;
32469;SDS011;18925;48.356;10.864;2023-02-10T02:03:00;110.68;;;53.22;;
32469;SDS011;18925;48.356;10.864;2023-02-10T02:03:32;132.70;;;60.22;;
32469;SDS011;18925;48.356;10.864;2023-02-10T02:04:03;121.25;;;57.83;;
32469;SDS011;18925;48.356;10.864;2023-02-10T02:04:38;129.90;;;59.05;;
32469;SDS011;18925;48.356;10.864;2023-02-10T02:05:18;117.68;;;55.20;;
32469;SDS011;18925;48.356;10.864;2023-02-10T02:05:51;118.13;;;57.42;;
32469;SDS011;18925;48.356;10.864;2023-02-10T02:06:22;118.70;;;54.10;;
32469;SDS011;18925;48.356;10.864;2023-02-10T02:06:53;109.43;;;54.90;;
32469;SDS011;18925;48.356;10.864;2023-02-10T02:07:24;108.90;;;53.20;;
32469;SDS011;18925;48.356;10.864;2023-02-10T02:07:59;138.02;;;59.17;;
32469;SDS011;18925;48.356;10.864;2023-02-10T02:08:36;128.43;;;59.92;;
32469;SDS011;18925;48.356;10.864;2023-02-10T02:09:07;140.85;;;61.80;;
32469;SDS011;18925;48.356;10.864;2023-02-10T02:09:39;132.88;;;60.78;;
32469;SDS011;18925;48.356;10.864;2023-02-10T02:10:10;124.30;;;59.63;;
32469;SDS011;18925;48.356;10.864;2023-02-10T02:12:01;118.82;;;54.20;;
32469;SDS011;18925;48.356;10.864;2023-02-10T02:16:52;109.65;;;53.15;;
32469;SDS011;18925;48.356;10.864;2023-02-10T02:17:36;108.43;;;52.17;;
32469;SDS011;18925;48.356;10.864;2023-02-10T02:21:10;102.18;;;47.50;;
32469;SDS011;18925;48.356;10.864;2023-02-10T02:21:50;104.70;;;49.63;;
32469;SDS011;18925;48.356;10.864;2023-02-10T02:22:48;102.65;;;49.55;;
32469;SDS011;18925;48.356;10.864;2023-02-10T02:24:41;103.13;;;48.47;;
32469;SDS011;18925;48.356;10.864;2023-02-10T02:28:08;106.30;;;48.92;;
32469;SDS011;18925;48.356;10.864;2023-02-10T02:32:18;94.00;;;47.28;;
32469;SDS011;18925;48.356;10.864;2023-02-10T02:32:53;101.25;;;48.17;;
32469;SDS011;18925;48.356;10.864;2023-02-10T02:35:30;94.35;;;46.65;;
32469;SDS011;18925;48.356;10.864;2023-02-10T02:36:20;98.50;;;48.17;;
32469;SDS011;18925;48.356;10.864;2023-02-10T02:37:03;78.00;;;38.08;;
32469;SDS011;18925;48.356;10.864;2023-02-10T02:37:42;90.65;;;46.53;;
32469;SDS011;18925;48.356;10.864;2023-02-10T02:38:16;105.80;;;49.33;;
32469;SDS011;18925;48.356;10.864;2023-02-10T02:38:46;104.75;;;49.72;;
32469;SDS011;18925;48.356;10.864;2023-02-10T02:39:17;96.50;;;48.92;;
32469;SDS011;18925;48.356;10.864;2023-02-10T02:39:51;99.18;;;49.10;;
32469;SDS011;18925;48.356;10.864;2023-02-10T02:40:22;109.35;;;51.90;;
32469;SDS011;18925;48.356;10.864;2023-02-10T02:40:53;119.53;;;53.22;;
32469;SDS011;18925;48.356;10.864;2023-02-10T02:41:25;115.90;;;53.42;;
32469;SDS011;18925;48.356;10.864;2023-02-10T02:42:00;108.32;;;52.95;;
32469;SDS011;18925;48.356;10.864;2023-02-10T02:42:49;107.55;;;49.42;;
32469;SDS011;18925;48.356;10.864;2023-02-10T02:43:20;112.30;;;50.90;;
32469;SDS011;18925;48.356;10.864;2023-02-10T02:43:51;121.47;;;53.20;;
32469;SDS011;18925;48.356;10.864;2023-02-10T02:44:23;110.03;;;52.70;;
32469;SDS011;18925;48.356;10.864;2023-02-10T02:45:52;102.90;;;48.97;;
32469;SDS011;18925;48.356;10.864;2023-02-10T02:46:38;104.60;;;48.35;;
32469;SDS011;18925;48.356;10.864;2023-02-10T02:51:42;97.85;;;48.85;;
32469;SDS011;18925;48.356;10.864;2023-02-10T02:52:27;114.45;;;48.78;;
32469;SDS011;18925;48.356;10.864;2023-02-10T02:54:09;114.45;;;52.83;;
32469;SDS011;18925;48.356;10.864;2023-02-10T02:55:02;104.25;;;49.05;;
32469;SDS011;18925;48.356;10.864;2023-02-10T02:56:03;93.47;;;46.03;;
32469;SDS011;18925;48.356;10.864;2023-02-10T02:57:52;111.22;;;49.05;;
32469;SDS011;18925;48.356;10.864;2023-02-10T02:59:50;113.10;;;52.55;;
32469;SDS011;18925;48.356;10.864;2023-02-10T03:00:42;104.03;;;49.47;;
32469;SDS011;18925;48.356;10.864;2023-02-10T03:01:23;119.22;;;52.35;;
32469;SDS011;18925;48.356;10.864;2023-02-10T03:02:01;104.15;;;49.95;;
32469;SDS011;18925;48.356;10.864;2023-02-10T03:02:35;104.03;;;51.95;;
32469;SDS011;18925;48.356;10.864;2023-02-10T03:03:11;105.53;;;51.10;;
32469;SDS011;18925;48.356;10.864;2023-02-10T03:03:42;112.07;;;51.75;;
32469;SDS011;18925;48.356;10.864;2023-02-10T03:04:13;106.05;;;50.65;;
32469;SDS011;18925;48.356;10.864;2023-02-10T03:04:45;120.72;;;54.20;;
32469;SDS011;18925;48.356;10.864;2023-02-10T03:05:18;113.30;;;53.15;;
32469;SDS011;18925;48.356;10.864;2023-02-10T03:05:51;111.10;;;51.60;;
32469;SDS011;18925;48.356;10.864;2023-02-10T03:06:22;104.05;;;51.85;;
32469;SDS011;18925;48.356;10.864;2023-02-10T03:06:52;108.82;;;52.05;;
32469;SDS011;18925;48.356;10.864;2023-02-10T03:07:23;110.93;;;52.70;;
32469;SDS011;18925;48.356;10.864;2023-02-10T03:07:54;113.70;;;53.13;;
32469;SDS011;18925;48.356;10.864;2023-02-10T03:08:25;133.80;;;57.22;;
32469;SDS011;18925;48.356;10.864;2023-02-10T03:08:56;116.40;;;53.15;;
32469;SDS011;18925;48.356;10.864;2023-02-10T03:09:27;109.95;;;52.10;;
32469;SDS011;18925;48.356;10.864;2023-02-10T03:09:58;118.10;;;53.30;;
32469;SDS011;18925;48.356;10.864;2023-02-10T03:10:29;113.88;;;53.67;;
32469;SDS011;18925;48.356;10.864;2023-02-10T03:10:59;110.20;;;52.22;;
32469;SDS011;18925;48.356;10.864;2023-02-10T03:11:30;106.10;;;51.15;;
32469;SDS011;18925;48.356;10.864;2023-02-10T03:12:01;102.97;;;50.28;;
32469;SDS011;18925;48.356;10.864;2023-02-10T03:12:31;113.30;;;51.30;;
32469;SDS011;18925;48.356;10.864;2023-02-10T03:13:02;113.13;;;53.67;;
32469;SDS011;18925;48.356;10.864;2023-02-10T03:13:33;101.35;;;50.88;;
32469;SDS011;18925;48.356;10.864;2023-02-10T03:14:03;105.85;;;52.25;;
32469;SDS011;18925;48.356;10.864;2023-02-10T03:14:34;111.20;;;52.15;;
32469;SDS011;18925;48.356;10.864;2023-02-10T03:15:04;113.07;;;52.13;;
32469;SDS011;18925;48.356;10.864;2023-02-10T03:15:35;107.18;;;50.67;;
32469;SDS011;18925;48.356;10.864;2023-02-10T03:16:06;114.47;;;53.42;;
32469;SDS011;18925;48.356;10.864;2023-02-10T03:16:37;102.78;;;50.40;;
32469;SDS011;18925;48.356;10.864;2023-02-10T03:17:07;104.95;;;51.03;;
32469;SDS011;18925;48.356;10.864;2023-02-10T03:17:38;113.28;;;53.20;;
32469;SDS011;18925;48.356;10.864;2023-02-10T03:18:10;112.35;;;53.40;;
32469;SDS011;18925;48.356;10.864;2023-02-10T03:18:41;109.75;;;52.40;;
32469;SDS011;18925;48.356;10.864;2023-02-10T03:19:12;107.13;;;50.65;;
32469;SDS011;18925;48.356;10.864;2023-02-10T03:19:42;105.35;;;51.33;;
32469;SDS011;18925;48.356;10.864;2023-02-10T03:20:13;113.10;;;54.03;;
32469;SDS011;18925;48.356;10.864;2023-02-10T03:20:44;100.22;;;51.88;;
32469;SDS011;18925;48.356;10.864;2023-02-10T03:21:14;112.55;;;54.00;;
32469;SDS011;18925;48.356;10.864;2023-02-10T03:21:45;104.25;;;50.53;;
32469;SDS011;18925;48.356;10.864;2023-02-10T03:22:17;103.20;;;53.05;;
32469;SDS011;18925;48.356;10.864;2023-02-10T03:22:47;108.40;;;51.53;;
32469;SDS011;18925;48.356;10.864;2023-02-10T03:23:18;110.30;;;51.10;;
32469;SDS011;18925;48.356;10.864;2023-02-10T03:23:49;102.65;;;52.50;;
32469;SDS011;18925;48.356;10.864;2023-02-10T03:24:19;98.18;;;50.60;;
32469;SDS011;18925;48.356;10.864;2023-02-10T03:24:50;113.05;;;51.38;;
32469;SDS011;18925;48.356;10.864;2023-02-10T03:25:20;105.28;;;50.65;;
32469;SDS011;18925;48.356;10.864;2023-02-10T03:25:51;102.40;;;51.95;;
32469;SDS011;18925;48.356;10.864;2023-02-10T03:26:22;116.90;;;54.75;;
32469;SDS011;18925;48.356;10.864;2023-02-10T03:26:52;110.57;;;51.97;;
32469;SDS011;18925;48.356;10.864;2023-02-10T03:27:23;107.63;;;51.78;;
32469;SDS011;18925;48.356;10.864;2023-02-10T03:27:54;108.30;;;52.03;;
32469;SDS011;18925;48.356;10.864;2023-02-10T03:28:24;114.55;;;51.95;;
32469;SDS011;18925;48.356;10.864;2023-02-10T03:28:55;106.03;;;51.45;;
32469;SDS011;18925;48.356;10.864;2023-02-10T03:29:26;107.82;;;51.78;;
32469;SDS011;18925;48.356;10.864;2023-02-10T03:29:57;100.30;;;50.63;;
32469;SDS011;18925;48.356;10.864;2023-02-10T03:30:27;115.43;;;52.85;;
32469;SDS011;18925;48.356;10.864;2023-02-10T03:31:01;105.55;;;50.90;;
32469;SDS011;18925;48.356;10.864;2023-02-10T03:31:36;105.45;;;51.10;;
32469;SDS011;18925;48.356;10.864;2023-02-10T03:32:07;108.32;;;51.45;;
32469;SDS011;18925;48.356;10.864;2023-02-10T03:32:38;106.88;;;50.95;;
32469;SDS011;18925;48.356;10.864;2023-02-10T03:33:08;101.72;;;49.83;;
32469;SDS011;18925;48.356;10.864;2023-02-10T03:33:39;107.53;;;51.15;;